Saint Regis, Montana
Current Conditions -  °F | °C
As of 2:53 PM on Tuesday 25 Nov 2014 (Local Time) from KMLP Reporting Station
Moderate Snow Moderate Snow  
Wind Chill: 29°   Ceiling: 200
Heat Index: 29°   Visibility: 0.25mi
Dew Point: 25°   Wind: 3mph
Humidity: 85%   Direction: 330°NNW
Pressure: 30.08"   Gusts: NA
Location:  47.3°N, 115.1°W
Report Text: KMLP 252153Z AUTO 33003KT 1/4SM SN FZFG VV002 M02/M04 A3008 RMK AO2 SLP214 P0003 T10171039
Loading
Personal Weather Stations






























Interactive Weather Map New forecast layout! Learn more

10-Day Weather Forecast

Advertisements
Track Severe Weather on mobile